createdAt,value
2023-03-14T00:00:57.051Z,10.42
2023-03-14T00:01:59.680Z,10.46
2023-03-14T00:03:01.315Z,10.49
2023-03-14T00:04:06.050Z,10.46
2023-03-14T00:05:08.799Z,10.47
2023-03-14T00:06:11.747Z,10.44
2023-03-14T00:07:15.926Z,10.44
2023-03-14T00:08:17.546Z,10.41
2023-03-14T00:09:20.143Z,10.39
2023-03-14T00:10:21.937Z,10.35
2023-03-14T00:11:24.737Z,10.38
2023-03-14T00:12:26.358Z,10.39
2023-03-14T00:13:28.948Z,10.42
2023-03-14T00:14:30.575Z,10.47
2023-03-14T00:15:34.321Z,10.44
2023-03-14T00:16:36.065Z,10.49
2023-03-14T00:17:38.730Z,10.55
2023-03-14T00:18:40.478Z,10.56
2023-03-14T00:19:43.073Z,10.52
2023-03-14T00:20:45.671Z,10.53
2023-03-14T00:21:47.447Z,10.54
2023-03-14T00:22:51.367Z,10.50
2023-03-14T00:23:54.104Z,10.54
2023-03-14T00:24:55.726Z,10.55
2023-03-14T00:26:00.729Z,10.48
2023-03-14T00:27:02.351Z,10.46
2023-03-14T00:28:05.411Z,10.54
2023-03-14T00:29:07.032Z,10.56
2023-03-14T00:30:10.808Z,10.53
2023-03-14T00:31:13.402Z,10.56
2023-03-14T00:32:16.033Z,10.55
2023-03-14T00:33:17.651Z,10.54
2023-03-14T00:34:20.240Z,10.54
2023-03-14T00:35:21.866Z,10.52
2023-03-14T00:36:24.559Z,10.50
2023-03-14T00:37:26.177Z,10.55
2023-03-14T00:38:30.100Z,10.55
2023-03-14T00:39:31.726Z,10.60
2023-03-14T00:40:34.327Z,10.57
2023-03-14T00:41:35.946Z,10.56
2023-03-14T00:42:38.548Z,10.62
2023-03-14T00:43:40.231Z,10.62
2023-03-14T00:44:42.806Z,10.60
2023-03-14T00:45:44.570Z,10.57
2023-03-14T00:46:47.157Z,10.61
2023-03-14T00:47:48.808Z,10.57
2023-03-14T00:48:51.413Z,10.56
2023-03-14T00:49:53.034Z,10.55
2023-03-14T00:50:55.653Z,10.53
2023-03-14T00:51:57.262Z,10.57
2023-03-14T00:52:59.922Z,10.55
2023-03-14T00:54:02.893Z,10.55
2023-03-14T00:55:06.294Z,10.54
2023-03-14T00:56:09.809Z,10.51
2023-03-14T00:57:12.395Z,10.50
2023-03-14T00:58:15.108Z,10.51
2023-03-14T00:59:17.801Z,10.52
2023-03-14T01:00:19.518Z,10.55
2023-03-14T01:01:22.169Z,10.54
2023-03-14T01:02:23.833Z,10.51
2023-03-14T01:03:28.470Z,10.54
2023-03-14T01:04:31.312Z,10.49
2023-03-14T01:05:33.951Z,10.50
2023-03-14T01:06:35.596Z,10.52
2023-03-14T01:07:38.474Z,10.48
2023-03-14T01:08:40.093Z,10.49
2023-03-14T01:09:44.023Z,10.45
2023-03-14T01:10:45.635Z,10.44
2023-03-14T01:11:48.221Z,10.45
2023-03-14T01:12:49.911Z,10.31
2023-03-14T01:13:52.579Z,9.90
2023-03-14T01:14:54.179Z,9.74
2023-03-14T01:15:56.792Z,9.67
2023-03-14T01:17:01.720Z,9.66
2023-03-14T01:18:04.517Z,9.64
2023-03-14T01:19:06.121Z,9.59
2023-03-14T01:20:10.773Z,9.51
2023-03-14T01:21:13.499Z,9.61
2023-03-14T01:22:16.074Z,9.68
2023-03-14T01:23:17.693Z,9.75
2023-03-14T01:24:20.294Z,9.81
2023-03-14T01:25:23.297Z,9.85
2023-03-14T01:26:27.830Z,9.91
2023-03-14T01:27:29.417Z,9.87
2023-03-14T01:28:32.052Z,9.89
2023-03-14T01:29:34.671Z,9.92
2023-03-14T01:30:36.327Z,9.95
2023-03-14T01:31:39.003Z,9.92
2023-03-14T01:32:40.865Z,9.93
2023-03-14T01:33:43.467Z,9.93
2023-03-14T01:34:45.067Z,9.94
2023-03-14T01:35:47.677Z,9.93
2023-03-14T01:36:49.368Z,9.93
2023-03-14T01:37:51.949Z,9.92
2023-03-14T01:38:53.849Z,9.92
2023-03-14T01:39:56.443Z,9.87
2023-03-14T01:40:59.406Z,9.89
2023-03-14T01:42:02.283Z,9.90
2023-03-14T01:43:07.483Z,9.94
2023-03-14T01:44:11.751Z,9.97
2023-03-14T01:45:46.701Z,9.95
2023-03-14T01:46:49.579Z,9.97
2023-03-14T01:47:51.216Z,9.97
2023-03-14T01:49:00.480Z,9.89
2023-03-14T01:50:04.153Z,9.87
2023-03-14T01:51:07.185Z,9.86
2023-03-14T01:52:11.319Z,9.79
2023-03-14T01:53:12.942Z,9.81
2023-03-14T01:54:18.355Z,9.86
2023-03-14T01:55:21.419Z,9.81
2023-03-14T01:56:25.340Z,9.81
2023-03-14T01:57:29.158Z,9.76
2023-03-14T01:58:31.993Z,9.82
2023-03-14T01:59:33.608Z,9.77
2023-03-14T02:00:36.241Z,9.69
2023-03-14T02:01:37.884Z,9.65
2023-03-14T02:02:40.618Z,9.54
2023-03-14T02:03:46.722Z,9.51
2023-03-14T02:04:49.365Z,9.49
2023-03-14T02:05:51.178Z,9.49
2023-03-14T02:06:56.611Z,9.53
2023-03-14T02:07:58.998Z,9.59
2023-03-14T02:09:01.857Z,9.71
2023-03-14T02:10:04.710Z,9.80
2023-03-14T02:11:08.210Z,9.79
2023-03-14T02:12:12.141Z,9.79
2023-03-14T02:13:14.212Z,9.88
2023-03-14T02:14:23.136Z,9.89
2023-03-14T02:15:24.751Z,9.87
2023-03-14T02:16:27.396Z,9.89
2023-03-14T02:17:29.038Z,9.96
2023-03-14T02:18:31.653Z,9.93
2023-03-14T02:19:41.138Z,9.93
2023-03-14T02:20:47.076Z,9.92
2023-03-14T02:21:50.559Z,9.97
2023-03-14T02:22:53.203Z,9.96
2023-03-14T02:24:00.175Z,9.91
2023-03-14T02:25:06.232Z,9.90
2023-03-14T02:26:10.125Z,9.86
2023-03-14T02:27:14.422Z,9.72
2023-03-14T02:28:16.107Z,9.51
2023-03-14T02:29:18.695Z,9.37
2023-03-14T02:30:21.031Z,9.37
2023-03-14T02:31:23.682Z,9.28
2023-03-14T02:32:25.740Z,9.32
2023-03-14T02:33:28.427Z,9.39
2023-03-14T02:34:30.028Z,9.36
2023-03-14T02:35:34.861Z,9.37
2023-03-14T02:36:36.500Z,9.36
2023-03-14T02:37:40.818Z,9.34
2023-03-14T02:38:45.203Z,9.35
2023-03-14T02:39:50.040Z,9.44
2023-03-14T02:40:51.657Z,9.41
2023-03-14T02:41:54.248Z,9.43
2023-03-14T02:42:57.256Z,9.46
2023-03-14T02:43:59.842Z,9.44
2023-03-14T02:45:22.401Z,9.42
2023-03-14T02:46:25.012Z,9.37
2023-03-14T02:47:28.164Z,9.34
2023-03-14T02:48:32.426Z,9.30
2023-03-14T02:49:34.101Z,9.34
2023-03-14T02:50:36.697Z,9.31
2023-03-14T02:51:38.648Z,9.25
2023-03-14T02:52:41.258Z,9.30
2023-03-14T02:53:43.677Z,9.32
2023-03-14T02:54:46.298Z,9.27
2023-03-14T02:55:48.132Z,9.27
2023-03-14T02:56:50.773Z,9.32
2023-03-14T02:57:52.412Z,9.27
2023-03-14T02:58:58.588Z,9.24
2023-03-14T03:00:00.757Z,9.27
2023-03-14T03:01:03.439Z,9.28
2023-03-14T03:02:05.083Z,9.29
2023-03-14T03:03:07.714Z,9.24
2023-03-14T03:04:09.379Z,9.27
2023-03-14T03:05:11.980Z,9.29
2023-03-14T03:06:13.693Z,9.25
2023-03-14T03:07:16.290Z,9.28
2023-03-14T03:08:18.090Z,9.28
2023-03-14T03:09:20.692Z,9.34
2023-03-14T03:10:22.333Z,9.40
2023-03-14T03:11:24.972Z,9.43
2023-03-14T03:12:26.604Z,9.34
2023-03-14T03:13:29.217Z,9.35
2023-03-14T03:14:32.243Z,9.26
2023-03-14T03:15:34.959Z,9.23
2023-03-14T03:16:36.677Z,9.32
2023-03-14T03:17:39.407Z,9.37
2023-03-14T03:18:41.041Z,9.35
2023-03-14T03:19:43.660Z,9.33
2023-03-14T03:20:45.322Z,9.36
2023-03-14T03:21:48.012Z,9.39
2023-03-14T03:22:50.782Z,9.44
2023-03-14T03:23:53.429Z,9.45
2023-03-14T03:24:55.061Z,9.46
2023-03-14T03:25:57.667Z,9.44
2023-03-14T03:26:59.321Z,9.42
2023-03-14T03:28:02.060Z,9.39
2023-03-14T03:29:03.699Z,9.38
2023-03-14T03:30:08.576Z,9.37
2023-03-14T03:31:10.795Z,9.44
2023-03-14T03:32:13.504Z,9.53
2023-03-14T03:33:15.306Z,9.54
2023-03-14T03:34:17.940Z,9.54
2023-03-14T03:35:19.659Z,9.53
2023-03-14T03:36:23.059Z,9.54
2023-03-14T03:37:25.156Z,9.52
2023-03-14T03:38:27.768Z,9.55
2023-03-14T03:39:29.395Z,9.62
2023-03-14T03:40:32.238Z,9.60
2023-03-14T03:41:33.878Z,9.60
2023-03-14T03:42:36.780Z,9.52
2023-03-14T03:43:38.420Z,9.48
2023-03-14T03:44:41.041Z,9.50
2023-03-14T03:45:44.058Z,9.56
2023-03-14T03:46:46.739Z,9.55
2023-03-14T03:47:48.679Z,9.50
2023-03-14T03:48:55.847Z,9.55
2023-03-14T03:49:57.472Z,9.51
2023-03-14T03:51:00.095Z,9.46
2023-03-14T03:52:01.728Z,9.52
2023-03-14T03:53:04.414Z,9.48
2023-03-14T03:54:06.046Z,9.46
2023-03-14T03:55:09.462Z,9.46
2023-03-14T03:56:12.136Z,9.42
2023-03-14T03:57:13.818Z,9.40
2023-03-14T03:58:16.692Z,9.45
2023-03-14T03:59:18.365Z,9.51
2023-03-14T04:00:21.199Z,9.45
2023-03-14T04:01:24.176Z,9.43
2023-03-14T04:02:27.047Z,9.46
2023-03-14T04:03:30.087Z,9.41
2023-03-14T04:04:31.919Z,9.43
2023-03-14T04:05:35.425Z,9.42
2023-03-14T04:06:38.001Z,9.46
2023-03-14T04:07:40.613Z,9.49
2023-03-14T04:08:42.420Z,9.45
2023-03-14T04:09:45.038Z,9.41
2023-03-14T04:10:46.671Z,9.44
2023-03-14T04:11:49.276Z,9.41
2023-03-14T04:12:50.908Z,9.44
2023-03-14T04:13:53.564Z,9.50
2023-03-14T04:14:55.198Z,9.49
2023-03-14T04:15:57.894Z,9.47
2023-03-14T04:17:00.926Z,9.45
2023-03-14T04:18:03.543Z,9.47
2023-03-14T04:19:05.245Z,9.38
2023-03-14T04:20:11.646Z,9.39
2023-03-14T04:21:13.359Z,9.39
2023-03-14T04:22:15.951Z,9.40
2023-03-14T04:23:17.596Z,9.45
2023-03-14T04:24:20.258Z,9.44
2023-03-14T04:25:21.995Z,9.49
2023-03-14T04:26:24.629Z,9.48
2023-03-14T04:27:26.259Z,9.40
2023-03-14T04:28:28.886Z,9.48
2023-03-14T04:29:30.743Z,9.51
2023-03-14T04:30:33.346Z,9.51
2023-03-14T04:31:35.083Z,9.54
2023-03-14T04:32:40.786Z,9.51
2023-03-14T04:33:44.877Z,9.54
2023-03-14T04:34:48.325Z,9.54
2023-03-14T04:35:51.140Z,9.52
2023-03-14T04:36:53.855Z,9.50
2023-03-14T04:37:55.492Z,9.58
2023-03-14T04:38:58.087Z,9.58
2023-03-14T04:39:59.793Z,9.56
2023-03-14T04:41:02.552Z,9.58
2023-03-14T04:42:04.183Z,9.53
2023-03-14T04:43:06.778Z,9.46
2023-03-14T04:44:08.443Z,9.45
2023-03-14T04:45:11.344Z,9.58
2023-03-14T04:46:13.007Z,9.56
2023-03-14T04:47:15.642Z,9.59
2023-03-14T04:48:18.677Z,9.57
2023-03-14T04:49:21.276Z,9.62
2023-03-14T04:50:23.618Z,9.66
2023-03-14T04:51:28.281Z,9.64
2023-03-14T04:52:30.048Z,9.62
2023-03-14T04:53:33.207Z,9.60
2023-03-14T04:54:34.918Z,9.61
2023-03-14T04:55:37.601Z,9.64
2023-03-14T04:56:39.407Z,9.58
2023-03-14T04:57:42.032Z,9.63
2023-03-14T04:58:44.983Z,9.63
2023-03-14T04:59:47.662Z,9.68
2023-03-14T05:00:49.348Z,9.67
2023-03-14T05:01:52.005Z,9.71
2023-03-14T05:02:53.740Z,9.70
2023-03-14T05:03:57.743Z,9.65
2023-03-14T05:04:59.408Z,9.63
2023-03-14T05:06:02.121Z,9.70
2023-03-14T05:07:03.774Z,9.75
2023-03-14T05:08:06.511Z,9.76
2023-03-14T05:09:09.162Z,9.72
2023-03-14T05:10:11.621Z,9.68
2023-03-14T05:11:14.338Z,9.66
2023-03-14T05:12:15.974Z,9.66
2023-03-14T05:13:18.592Z,9.66
2023-03-14T05:14:20.226Z,9.70
2023-03-14T05:15:22.851Z,9.72
2023-03-14T05:16:24.591Z,9.67
2023-03-14T05:17:27.297Z,9.63
2023-03-14T05:18:28.922Z,9.65
2023-03-14T05:19:34.969Z,9.66
2023-03-14T05:20:37.684Z,9.66
2023-03-14T05:21:40.321Z,9.64
2023-03-14T05:22:41.953Z,9.65
2023-03-14T05:23:44.554Z,9.63
2023-03-14T05:24:46.187Z,9.63
2023-03-14T05:25:48.860Z,9.65
2023-03-14T05:26:50.571Z,9.62
2023-03-14T05:27:55.583Z,9.60
2023-03-14T05:28:57.233Z,9.61
2023-03-14T05:29:59.851Z,9.68
2023-03-14T05:31:01.493Z,9.67
2023-03-14T05:32:04.254Z,9.64
2023-03-14T05:33:05.872Z,9.66
2023-03-14T05:34:08.485Z,9.65
2023-03-14T05:35:11.486Z,9.68
2023-03-14T05:36:14.111Z,9.65
2023-03-14T05:37:15.827Z,9.64
2023-03-14T05:38:19.298Z,9.61
2023-03-14T05:39:20.922Z,9.64
2023-03-14T05:40:23.511Z,9.64
2023-03-14T05:41:25.139Z,9.64
2023-03-14T05:42:27.931Z,9.56
2023-03-14T05:43:29.567Z,9.28
2023-03-14T05:44:32.172Z,8.96
2023-03-14T05:45:35.526Z,8.87
2023-03-14T05:46:38.330Z,8.90
2023-03-14T05:47:40.010Z,8.92
2023-03-14T05:48:42.622Z,8.86
2023-03-14T05:49:44.235Z,8.61
2023-03-14T05:50:48.208Z,8.69
2023-03-14T05:51:49.835Z,8.76
2023-03-14T05:52:52.468Z,8.90
2023-03-14T05:53:54.105Z,8.91
2023-03-14T05:54:56.705Z,8.97
2023-03-14T05:55:58.474Z,8.78
2023-03-14T05:57:01.095Z,8.68
2023-03-14T05:58:02.754Z,8.62
2023-03-14T05:59:05.381Z,8.70
2023-03-14T06:00:08.357Z,8.78
2023-03-14T06:01:11.013Z,8.80
2023-03-14T06:02:12.707Z,8.86
2023-03-14T06:03:15.579Z,8.88
2023-03-14T06:04:17.275Z,8.92
2023-03-14T06:05:19.951Z,9.04
2023-03-14T06:06:22.944Z,9.04
2023-03-14T06:07:25.649Z,9.02
2023-03-14T06:08:27.327Z,8.92
2023-03-14T06:09:29.931Z,8.98
2023-03-14T06:10:31.623Z,8.87
2023-03-14T06:11:34.236Z,8.83
2023-03-14T06:12:35.895Z,8.81
2023-03-14T06:13:38.518Z,8.67
2023-03-14T06:14:41.128Z,8.58
2023-03-14T06:15:42.807Z,8.53
2023-03-14T06:16:45.489Z,8.65
2023-03-14T06:17:47.186Z,8.67
2023-03-14T06:18:50.043Z,8.63
2023-03-14T06:19:51.696Z,8.57
2023-03-14T06:20:55.711Z,8.39
2023-03-14T06:21:58.691Z,8.29
2023-03-14T06:23:01.364Z,8.31
2023-03-14T06:24:04.547Z,8.29
2023-03-14T06:25:06.535Z,8.31
2023-03-14T06:26:09.185Z,8.39
2023-03-14T06:27:10.910Z,8.51
2023-03-14T06:28:13.587Z,8.70
2023-03-14T06:29:15.259Z,8.79
2023-03-14T06:30:18.671Z,8.86
2023-03-14T06:31:21.473Z,8.82
2023-03-14T06:32:23.322Z,8.83
2023-03-14T06:33:26.105Z,8.85
2023-03-14T06:34:27.724Z,8.90
2023-03-14T06:35:30.304Z,8.90
2023-03-14T06:36:32.003Z,8.92
2023-03-14T06:37:35.994Z,8.94
2023-03-14T06:38:37.760Z,8.98
2023-03-14T06:39:40.532Z,8.91
2023-03-14T06:40:42.151Z,8.81
2023-03-14T06:41:44.761Z,8.81
2023-03-14T06:42:46.388Z,8.79
2023-03-14T06:43:49.062Z,8.86
2023-03-14T06:44:51.674Z,8.96
2023-03-14T06:45:53.387Z,8.98
2023-03-14T06:46:56.040Z,8.98
2023-03-14T06:47:57.672Z,8.97
2023-03-14T06:49:00.294Z,9.03
2023-03-14T06:50:01.921Z,9.04
2023-03-14T06:51:04.826Z,9.10
2023-03-14T06:52:06.448Z,9.09
2023-03-14T06:53:10.471Z,9.13
2023-03-14T06:54:13.466Z,9.22
2023-03-14T06:55:15.249Z,9.23
2023-03-14T06:56:17.850Z,9.18
2023-03-14T06:57:19.508Z,9.12
2023-03-14T06:58:22.133Z,9.15
2023-03-14T06:59:25.298Z,9.12
2023-03-14T07:00:27.163Z,9.22
2023-03-14T07:01:30.436Z,9.15
2023-03-14T07:02:42.191Z,9.07
2023-03-14T07:03:45.756Z,9.11
2023-03-14T07:04:47.492Z,9.00
2023-03-14T07:05:50.156Z,9.00
2023-03-14T07:06:52.759Z,9.05
2023-03-14T07:07:54.371Z,9.07
2023-03-14T07:08:58.365Z,8.95
2023-03-14T07:10:01.075Z,8.78
2023-03-14T07:11:03.658Z,8.68
2023-03-14T07:12:06.122Z,8.70
2023-03-14T07:13:08.735Z,8.68
2023-03-14T07:14:10.365Z,8.64
2023-03-14T07:16:35.591Z,8.75
2023-03-14T07:17:37.323Z,8.84
2023-03-14T07:18:39.951Z,8.78
2023-03-14T07:19:42.620Z,8.78
2023-03-14T07:20:46.259Z,8.79
2023-03-14T07:21:48.860Z,8.69
2023-03-14T07:22:50.676Z,8.65
2023-03-14T07:23:53.289Z,8.66
2023-03-14T07:24:56.252Z,8.68
2023-03-14T07:25:58.884Z,8.49
2023-03-14T07:27:00.513Z,8.45
2023-03-14T07:28:03.100Z,8.59
2023-03-14T07:29:05.706Z,8.71
2023-03-14T07:30:08.646Z,8.81
2023-03-14T07:31:11.376Z,8.86
2023-03-14T07:32:15.663Z,8.88
2023-03-14T07:33:18.272Z,8.94
2023-03-14T07:34:21.386Z,8.87
2023-03-14T07:35:22.999Z,8.74
2023-03-14T07:36:25.646Z,8.61
2023-03-14T07:37:27.271Z,8.58
2023-03-14T07:38:29.865Z,8.45
2023-03-14T07:39:31.652Z,8.43
2023-03-14T07:40:35.588Z,8.44
2023-03-14T07:41:37.246Z,8.36
2023-03-14T07:42:39.847Z,8.29
2023-03-14T07:43:41.517Z,8.26
2023-03-14T07:44:44.121Z,8.25
2023-03-14T07:45:50.738Z,8.31
2023-03-14T07:46:53.867Z,8.31
2023-03-14T07:47:58.306Z,8.38
2023-03-14T07:49:00.924Z,8.47
2023-03-14T07:50:02.599Z,8.45
2023-03-14T07:51:05.470Z,8.44
2023-03-14T07:52:07.137Z,8.50
2023-03-14T07:53:09.717Z,8.42
2023-03-14T07:54:12.340Z,8.47
2023-03-14T07:55:14.569Z,8.58
2023-03-14T07:56:18.517Z,8.58
2023-03-14T07:57:20.236Z,8.60
2023-03-14T07:58:23.731Z,8.73
2023-03-14T07:59:26.337Z,8.88
2023-03-14T08:00:28.365Z,8.94
2023-03-14T08:01:30.968Z,8.94
2023-03-14T08:02:32.709Z,8.96
2023-03-14T08:03:35.406Z,8.98
2023-03-14T08:04:38.065Z,9.11
2023-03-14T08:05:39.732Z,9.10
2023-03-14T08:06:42.353Z,9.05
2023-03-14T08:07:45.022Z,8.94
2023-03-14T08:08:46.626Z,8.85
2023-03-14T08:09:49.226Z,8.96
2023-03-14T08:10:50.860Z,9.10
2023-03-14T08:11:54.977Z,9.10
2023-03-14T08:12:57.614Z,9.04
2023-03-14T08:14:00.216Z,9.06
2023-03-14T08:15:01.964Z,8.97
2023-03-14T08:16:05.254Z,9.03
2023-03-14T08:17:09.077Z,9.10
2023-03-14T08:18:11.724Z,9.08
2023-03-14T08:19:14.332Z,9.14
2023-03-14T08:20:16.229Z,9.04
2023-03-14T08:21:18.828Z,8.88
2023-03-14T08:22:20.509Z,8.90
2023-03-14T08:23:23.175Z,8.83
2023-03-14T08:24:24.803Z,8.85
2023-03-14T08:25:27.542Z,8.89
2023-03-14T08:26:29.314Z,8.94
2023-03-14T08:27:33.250Z,8.88
2023-03-14T08:28:34.926Z,8.97
2023-03-14T08:29:37.673Z,9.01
2023-03-14T08:30:40.319Z,9.19
2023-03-14T08:31:42.027Z,9.20
2023-03-14T08:32:44.696Z,9.13
2023-03-14T08:33:47.346Z,9.14
2023-03-14T08:34:49.145Z,9.15
2023-03-14T08:35:53.873Z,9.25
2023-03-14T08:36:57.755Z,9.34
2023-03-14T08:37:59.370Z,9.40
2023-03-14T08:39:02.069Z,9.42
2023-03-14T08:40:07.204Z,9.40
2023-03-14T08:41:10.271Z,9.45
2023-03-14T08:42:12.923Z,9.56
2023-03-14T08:43:16.871Z,9.71
2023-03-14T08:44:20.925Z,9.76
2023-03-14T08:45:22.707Z,9.94
2023-03-14T08:46:25.358Z,9.93
2023-03-14T08:47:28.528Z,9.90
2023-03-14T08:48:31.418Z,10.00
2023-03-14T08:49:33.364Z,10.00
2023-03-14T08:50:36.025Z,9.93
2023-03-14T08:51:37.679Z,10.04
2023-03-14T08:52:41.210Z,10.09
2023-03-14T08:53:42.898Z,10.16
2023-03-14T08:54:45.939Z,10.15
2023-03-14T08:55:48.546Z,10.14
2023-03-14T08:56:50.197Z,10.19
2023-03-14T08:57:52.841Z,10.18
2023-03-14T08:58:55.843Z,10.29
2023-03-14T08:59:58.977Z,10.28
2023-03-14T09:01:01.615Z,10.06
2023-03-14T09:02:04.455Z,9.95
2023-03-14T09:03:07.169Z,9.89
2023-03-14T09:04:08.921Z,9.93
2023-03-14T09:05:12.121Z,9.60
2023-03-14T09:06:14.716Z,9.32
2023-03-14T09:07:16.345Z,9.17
2023-03-14T09:08:18.956Z,9.22
2023-03-14T09:09:21.560Z,9.17
2023-03-14T09:10:23.368Z,9.05
2023-03-14T09:11:26.063Z,8.93
2023-03-14T09:12:27.937Z,8.98
2023-03-14T09:13:30.542Z,8.96
2023-03-14T09:14:33.595Z,9.02
2023-03-14T09:15:36.283Z,9.01
2023-03-14T09:16:38.177Z,9.10
2023-03-14T09:17:40.816Z,9.22
2023-03-14T09:18:43.440Z,9.28
2023-03-14T09:19:45.057Z,9.34
2023-03-14T09:20:47.747Z,9.36
2023-03-14T09:21:49.663Z,9.34
2023-03-14T09:22:52.296Z,9.43
2023-03-14T09:23:54.923Z,9.76
2023-03-14T09:24:57.524Z,9.83
2023-03-14T09:25:59.701Z,9.93
2023-03-14T09:27:02.959Z,10.08
2023-03-14T09:28:05.843Z,10.19
2023-03-14T09:29:08.712Z,10.12
2023-03-14T09:30:12.780Z,10.18
2023-03-14T09:31:16.125Z,10.15
2023-03-14T09:32:17.853Z,10.27
2023-03-14T09:33:20.714Z,10.37
2023-03-14T09:34:22.357Z,10.32
2023-03-14T09:35:25.041Z,10.32
2023-03-14T09:36:26.761Z,10.34
2023-03-14T09:37:29.379Z,10.33
2023-03-14T09:38:32.073Z,10.42
2023-03-14T09:39:34.677Z,10.50
2023-03-14T09:40:36.715Z,10.43
2023-03-14T09:41:39.934Z,10.37
2023-03-14T09:42:41.754Z,10.38
2023-03-14T09:43:44.405Z,10.34
2023-03-14T09:44:53.343Z,10.29
2023-03-14T09:45:56.462Z,10.23
2023-03-14T09:47:00.693Z,10.24
2023-03-14T09:48:02.744Z,10.26
2023-03-14T09:49:07.193Z,10.15
2023-03-14T09:50:12.180Z,10.16
2023-03-14T09:51:16.266Z,10.16
2023-03-14T09:52:19.131Z,10.09
2023-03-14T09:53:23.735Z,9.94
2023-03-14T09:54:32.459Z,9.78
2023-03-14T09:55:36.700Z,9.88
2023-03-14T09:56:38.462Z,9.86
2023-03-14T09:57:41.101Z,9.90
2023-03-14T09:58:44.287Z,10.00
2023-03-14T09:59:48.093Z,10.18
2023-03-14T10:00:50.277Z,10.34
2023-03-14T10:01:54.304Z,10.35
2023-03-14T10:02:58.010Z,10.43
2023-03-14T10:04:01.826Z,10.48
2023-03-14T10:05:07.618Z,10.42
2023-03-14T10:06:12.153Z,10.35
2023-03-14T10:07:16.441Z,10.34
2023-03-14T10:08:18.340Z,10.34
2023-03-14T10:09:25.964Z,10.07
2023-03-14T10:10:28.628Z,10.04
2023-03-14T10:11:30.267Z,10.04
2023-03-14T10:12:33.037Z,9.85
2023-03-14T10:13:35.669Z,9.62
2023-03-14T10:14:38.107Z,9.43
2023-03-14T10:15:40.868Z,9.27
2023-03-14T10:16:43.852Z,9.22
2023-03-14T10:17:49.606Z,9.14
2023-03-14T10:18:51.345Z,9.22
2023-03-14T10:19:55.635Z,9.20
2023-03-14T10:21:08.761Z,9.14
2023-03-14T10:22:14.140Z,9.15
2023-03-14T10:23:26.759Z,9.14
2023-03-14T10:24:30.824Z,9.21
2023-03-14T10:25:33.839Z,9.24
2023-03-14T10:26:36.570Z,9.21
2023-03-14T10:27:39.208Z,9.23
2023-03-14T10:28:44.024Z,9.23
2023-03-14T10:29:54.373Z,9.27
2023-03-14T10:30:56.210Z,9.27
2023-03-14T10:32:01.866Z,9.28
2023-03-14T10:33:10.949Z,9.27
2023-03-14T10:34:17.386Z,9.30
2023-03-14T10:35:21.142Z,9.31
2023-03-14T10:36:26.775Z,9.33
2023-03-14T10:37:28.568Z,9.37
2023-03-14T10:38:32.026Z,9.34
2023-03-14T10:39:40.049Z,9.47
2023-03-14T10:40:43.586Z,9.46
2023-03-14T10:41:48.762Z,9.55
2023-03-14T10:42:52.910Z,9.58
2023-03-14T10:43:56.406Z,9.59
2023-03-14T10:44:59.643Z,9.61
2023-03-14T10:46:03.824Z,9.61
2023-03-14T10:47:05.539Z,9.57
2023-03-14T10:48:20.091Z,9.52
2023-03-14T10:49:28.124Z,9.53
2023-03-14T10:50:31.675Z,9.52
2023-03-14T10:51:34.442Z,9.59
2023-03-14T10:52:51.323Z,9.48
2023-03-14T10:54:00.856Z,9.49
2023-03-14T10:55:04.472Z,9.49
2023-03-14T10:56:06.771Z,9.21
2023-03-14T10:57:09.470Z,8.70
2023-03-14T10:58:24.586Z,7.66
2023-03-14T10:59:27.259Z,7.49
2023-03-14T11:00:34.097Z,7.54
2023-03-14T11:01:40.407Z,7.70
2023-03-14T11:02:49.426Z,7.83
2023-03-14T11:03:56.090Z,7.77
2023-03-14T11:05:05.570Z,7.91
2023-03-14T11:06:09.081Z,7.92
2023-03-14T11:07:13.717Z,7.97
2023-03-14T11:08:19.612Z,7.94
2023-03-14T11:09:24.054Z,7.89
2023-03-14T11:10:28.254Z,7.95
2023-03-14T11:11:30.552Z,7.91
2023-03-14T11:12:40.379Z,8.00
2023-03-14T11:13:46.474Z,8.14
2023-03-14T11:14:49.245Z,8.18
2023-03-14T11:15:56.248Z,8.02
2023-03-14T11:17:01.095Z,8.13
2023-03-14T11:18:21.789Z,7.91
2023-03-14T11:19:53.706Z,7.93
2023-03-14T11:20:58.154Z,7.93
2023-03-14T11:22:01.009Z,8.00
2023-03-14T11:23:06.227Z,7.99
2023-03-14T11:24:21.513Z,7.97
2023-03-14T11:25:26.974Z,7.99
2023-03-14T11:26:31.707Z,8.17
2023-03-14T11:27:40.314Z,7.98
2023-03-14T11:28:44.847Z,7.91
2023-03-14T11:29:53.548Z,7.96
2023-03-14T11:30:57.035Z,7.93
2023-03-14T11:32:01.082Z,7.86
2023-03-14T11:33:04.615Z,7.81
2023-03-14T11:34:10.068Z,7.85
2023-03-14T11:35:18.097Z,7.98
2023-03-14T11:36:22.485Z,7.90
2023-03-14T11:37:26.328Z,7.83
2023-03-14T11:38:31.997Z,7.88
2023-03-14T11:39:38.596Z,7.88
2023-03-14T11:40:41.312Z,7.78
2023-03-14T11:41:44.227Z,7.82
2023-03-14T11:42:49.990Z,7.80
2023-03-14T11:43:55.402Z,7.72
2023-03-14T11:44:57.078Z,7.72
2023-03-14T11:46:03.687Z,7.68
2023-03-14T11:47:08.625Z,7.74
2023-03-14T11:48:25.831Z,7.77
2023-03-14T11:49:33.247Z,7.66
2023-03-14T11:50:37.285Z,7.66
2023-03-14T11:51:40.849Z,7.77
2023-03-14T11:52:44.556Z,7.61
2023-03-14T11:53:53.068Z,7.69
2023-03-14T11:54:57.179Z,7.75
2023-03-14T11:55:59.758Z,7.67
2023-03-14T11:57:03.602Z,7.60
2023-03-14T11:58:13.453Z,7.55
2023-03-14T11:59:16.946Z,7.64
2023-03-14T12:00:20.569Z,7.48
2023-03-14T12:01:23.203Z,7.55
2023-03-14T12:02:29.471Z,7.42
2023-03-14T12:03:36.538Z,7.44
2023-03-14T12:04:47.450Z,7.52
2023-03-14T12:05:57.605Z,7.54
2023-03-14T12:07:00.224Z,7.44
2023-03-14T12:08:38.295Z,7.34
2023-03-14T12:09:41.063Z,7.32
2023-03-14T12:10:44.153Z,7.34
2023-03-14T12:11:48.689Z,7.31
2023-03-14T12:12:50.446Z,7.34
2023-03-14T12:13:53.639Z,7.35
2023-03-14T12:14:56.404Z,7.38
2023-03-14T12:16:00.511Z,7.43
2023-03-14T12:17:07.288Z,7.50
2023-03-14T12:18:18.195Z,7.67
2023-03-14T12:19:39.831Z,7.62
2023-03-14T12:20:41.514Z,7.61
2023-03-14T12:21:51.395Z,7.59
2023-03-14T12:22:54.879Z,7.57
2023-03-14T12:23:57.214Z,7.48
2023-03-14T12:25:15.851Z,7.51
2023-03-14T12:26:19.852Z,7.52
2023-03-14T12:27:48.887Z,7.46
2023-03-14T12:28:52.179Z,7.47
2023-03-14T12:30:03.809Z,7.39
2023-03-14T12:31:40.790Z,7.38
2023-03-14T12:32:43.534Z,7.26
2023-03-14T12:33:46.184Z,7.28
2023-03-14T12:34:48.215Z,7.18
2023-03-14T12:35:51.310Z,7.16
2023-03-14T12:36:58.451Z,7.16
2023-03-14T12:38:00.107Z,6.99
2023-03-14T12:39:37.555Z,7.02
2023-03-14T12:40:41.623Z,6.98
2023-03-14T12:41:45.346Z,7.03
2023-03-14T12:42:56.751Z,7.07
2023-03-14T12:43:59.383Z,7.10
2023-03-14T12:45:16.467Z,7.19
2023-03-14T12:46:23.656Z,7.18
2023-03-14T12:47:56.117Z,7.29
2023-03-14T12:49:06.146Z,7.09
2023-03-14T12:50:08.931Z,6.91
2023-03-14T12:51:14.867Z,6.99
2023-03-14T12:52:21.369Z,6.99
2023-03-14T12:54:03.078Z,7.05
2023-03-14T12:55:05.875Z,7.11
2023-03-14T12:56:20.109Z,7.23
2023-03-14T12:57:27.489Z,7.21
2023-03-14T12:58:31.672Z,7.00
2023-03-14T12:59:35.548Z,7.04
2023-03-14T13:00:40.018Z,6.95
2023-03-14T13:01:48.511Z,7.06
2023-03-14T13:02:51.613Z,7.00
2023-03-14T13:03:54.964Z,7.02
2023-03-14T13:05:06.227Z,6.94
2023-03-14T13:06:09.795Z,6.86
2023-03-14T13:07:13.619Z,6.85
2023-03-14T13:08:17.145Z,6.69
2023-03-14T13:09:55.743Z,6.73
2023-03-14T13:10:58.364Z,6.72
2023-03-14T13:12:02.118Z,6.72
2023-03-14T13:13:05.789Z,6.66
2023-03-14T13:14:09.347Z,6.72
2023-03-14T13:15:19.521Z,6.75
2023-03-14T13:16:22.703Z,6.72
2023-03-14T13:17:34.710Z,6.71
2023-03-14T13:18:39.736Z,6.65
2023-03-14T13:19:41.414Z,6.56
2023-03-14T13:20:46.235Z,6.57
2023-03-14T13:21:47.841Z,6.71
2023-03-14T13:22:50.829Z,6.82
2023-03-14T13:23:59.470Z,6.95
2023-03-14T13:25:02.186Z,6.90
2023-03-14T13:26:04.809Z,6.82
2023-03-14T13:27:06.483Z,6.75
2023-03-14T13:28:11.472Z,6.70
2023-03-14T13:29:18.568Z,6.69
2023-03-14T13:30:23.118Z,6.58
2023-03-14T13:31:26.524Z,6.42
2023-03-14T13:32:28.930Z,6.26
2023-03-14T13:33:32.951Z,6.21
2023-03-14T13:34:36.098Z,6.28
2023-03-14T13:35:44.851Z,6.15
2023-03-14T13:36:46.758Z,6.11
2023-03-14T13:37:51.433Z,6.00
2023-03-14T13:38:58.559Z,5.96
2023-03-14T13:40:01.309Z,5.98
2023-03-14T13:41:06.354Z,6.10
2023-03-14T13:42:11.613Z,6.23
2023-03-14T13:43:17.175Z,6.14
2023-03-14T13:44:23.884Z,6.12
2023-03-14T13:45:25.534Z,6.05
2023-03-14T13:46:28.192Z,6.03
2023-03-14T13:47:30.663Z,6.08
2023-03-14T13:48:34.810Z,6.10
2023-03-14T13:49:36.525Z,6.06
2023-03-14T13:50:39.215Z,6.16
2023-03-14T13:51:41.861Z,6.17
2023-03-14T13:52:43.498Z,6.24
2023-03-14T13:53:46.121Z,6.24
2023-03-14T13:54:49.121Z,6.28
2023-03-14T13:55:52.117Z,6.41
2023-03-14T13:57:00.196Z,6.21
2023-03-14T13:58:02.808Z,6.32
2023-03-14T13:59:05.420Z,6.46
2023-03-14T14:00:10.902Z,6.52
2023-03-14T14:01:16.469Z,6.50
2023-03-14T14:02:18.773Z,6.45
2023-03-14T14:03:21.428Z,6.35
2023-03-14T14:04:26.147Z,6.32
2023-03-14T14:05:28.657Z,6.32
2023-03-14T14:06:33.166Z,6.16